sensor_id;sensor_type;location;lat;lon;timestamp;P1;durP1;ratioP1;P2;durP2;ratioP2
26391;SDS011;14572;43.120;1.178;2024-01-30T00:00:25;9.82;;;5.85;;
26391;SDS011;14572;43.120;1.178;2024-01-30T00:02:52;8.50;;;5.18;;
26391;SDS011;14572;43.120;1.178;2024-01-30T00:05:19;9.60;;;5.13;;
26391;SDS011;14572;43.120;1.178;2024-01-30T00:07:47;8.10;;;4.28;;
26391;SDS011;14572;43.120;1.178;2024-01-30T00:10:16;7.22;;;4.30;;
26391;SDS011;14572;43.120;1.178;2024-01-30T00:12:43;10.43;;;3.97;;
26391;SDS011;14572;43.120;1.178;2024-01-30T00:15:12;5.95;;;3.80;;
26391;SDS011;14572;43.120;1.178;2024-01-30T00:17:43;10.07;;;4.13;;
26391;SDS011;14572;43.120;1.178;2024-01-30T00:20:10;8.45;;;3.78;;
26391;SDS011;14572;43.120;1.178;2024-01-30T00:22:37;9.43;;;4.10;;
26391;SDS011;14572;43.120;1.178;2024-01-30T00:25:08;10.63;;;4.32;;
26391;SDS011;14572;43.120;1.178;2024-01-30T00:27:35;7.30;;;3.63;;
26391;SDS011;14572;43.120;1.178;2024-01-30T00:30:11;7.90;;;4.03;;
26391;SDS011;14572;43.120;1.178;2024-01-30T00:32:39;8.02;;;3.28;;
26391;SDS011;14572;43.120;1.178;2024-01-30T00:35:06;11.60;;;4.03;;
26391;SDS011;14572;43.120;1.178;2024-01-30T00:37:35;12.73;;;3.85;;
26391;SDS011;14572;43.120;1.178;2024-01-30T00:40:05;6.45;;;3.83;;
26391;SDS011;14572;43.120;1.178;2024-01-30T00:42:42;11.45;;;4.22;;
26391;SDS011;14572;43.120;1.178;2024-01-30T00:45:11;7.70;;;3.72;;
26391;SDS011;14572;43.120;1.178;2024-01-30T00:47:40;6.45;;;3.45;;
26391;SDS011;14572;43.120;1.178;2024-01-30T00:50:07;6.65;;;3.83;;
26391;SDS011;14572;43.120;1.178;2024-01-30T00:52:34;9.23;;;3.53;;
26391;SDS011;14572;43.120;1.178;2024-01-30T00:55:07;7.80;;;3.30;;
26391;SDS011;14572;43.120;1.178;2024-01-30T00:57:35;10.63;;;3.88;;
26391;SDS011;14572;43.120;1.178;2024-01-30T01:00:04;11.00;;;3.95;;
26391;SDS011;14572;43.120;1.178;2024-01-30T01:02:34;8.15;;;3.70;;
26391;SDS011;14572;43.120;1.178;2024-01-30T01:05:10;8.38;;;4.18;;
26391;SDS011;14572;43.120;1.178;2024-01-30T01:07:38;8.95;;;3.53;;
26391;SDS011;14572;43.120;1.178;2024-01-30T01:10:07;9.85;;;3.90;;
26391;SDS011;14572;43.120;1.178;2024-01-30T01:12:38;6.88;;;3.63;;
26391;SDS011;14572;43.120;1.178;2024-01-30T01:15:08;6.30;;;3.20;;
26391;SDS011;14572;43.120;1.178;2024-01-30T01:17:37;7.70;;;3.20;;
26391;SDS011;14572;43.120;1.178;2024-01-30T01:20:04;8.57;;;3.78;;
26391;SDS011;14572;43.120;1.178;2024-01-30T01:22:35;8.38;;;3.63;;
26391;SDS011;14572;43.120;1.178;2024-01-30T01:25:05;6.35;;;3.83;;
26391;SDS011;14572;43.120;1.178;2024-01-30T01:27:39;7.18;;;3.45;;
26391;SDS011;14572;43.120;1.178;2024-01-30T01:30:10;7.18;;;3.40;;
26391;SDS011;14572;43.120;1.178;2024-01-30T01:32:46;8.05;;;3.65;;
26391;SDS011;14572;43.120;1.178;2024-01-30T01:35:19;10.00;;;3.90;;
26391;SDS011;14572;43.120;1.178;2024-01-30T01:37:52;9.57;;;4.03;;
26391;SDS011;14572;43.120;1.178;2024-01-30T01:40:24;13.10;;;4.53;;
26391;SDS011;14572;43.120;1.178;2024-01-30T01:42:55;8.13;;;3.75;;
26391;SDS011;14572;43.120;1.178;2024-01-30T01:45:24;9.30;;;4.47;;
26391;SDS011;14572;43.120;1.178;2024-01-30T01:47:51;5.45;;;3.88;;
26391;SDS011;14572;43.120;1.178;2024-01-30T01:50:21;8.57;;;3.53;;
26391;SDS011;14572;43.120;1.178;2024-01-30T01:52:48;4.82;;;3.25;;
26391;SDS011;14572;43.120;1.178;2024-01-30T01:55:15;8.70;;;3.20;;
26391;SDS011;14572;43.120;1.178;2024-01-30T01:57:47;6.30;;;3.65;;
26391;SDS011;14572;43.120;1.178;2024-01-30T02:00:14;10.50;;;4.18;;
26391;SDS011;14572;43.120;1.178;2024-01-30T02:02:46;7.45;;;3.65;;
26391;SDS011;14572;43.120;1.178;2024-01-30T02:05:13;9.25;;;3.60;;
26391;SDS011;14572;43.120;1.178;2024-01-30T02:07:42;9.88;;;3.85;;
26391;SDS011;14572;43.120;1.178;2024-01-30T02:10:10;11.25;;;4.00;;
26391;SDS011;14572;43.120;1.178;2024-01-30T02:12:38;11.48;;;3.78;;
26391;SDS011;14572;43.120;1.178;2024-01-30T02:15:12;7.03;;;3.67;;
26391;SDS011;14572;43.120;1.178;2024-01-30T02:17:40;6.55;;;3.80;;
26391;SDS011;14572;43.120;1.178;2024-01-30T02:20:09;7.93;;;4.18;;
26391;SDS011;14572;43.120;1.178;2024-01-30T02:22:48;10.73;;;3.78;;
26391;SDS011;14572;43.120;1.178;2024-01-30T02:25:29;7.40;;;3.45;;
26391;SDS011;14572;43.120;1.178;2024-01-30T02:27:57;5.10;;;3.10;;
26391;SDS011;14572;43.120;1.178;2024-01-30T02:30:24;6.57;;;3.30;;
26391;SDS011;14572;43.120;1.178;2024-01-30T02:32:51;6.38;;;3.03;;
26391;SDS011;14572;43.120;1.178;2024-01-30T02:35:20;8.85;;;3.72;;
26391;SDS011;14572;43.120;1.178;2024-01-30T02:37:54;8.75;;;3.58;;
26391;SDS011;14572;43.120;1.178;2024-01-30T02:40:21;6.68;;;3.92;;
26391;SDS011;14572;43.120;1.178;2024-01-30T02:42:48;6.40;;;3.40;;
26391;SDS011;14572;43.120;1.178;2024-01-30T02:45:15;5.90;;;3.45;;
26391;SDS011;14572;43.120;1.178;2024-01-30T02:47:47;6.82;;;3.17;;
26391;SDS011;14572;43.120;1.178;2024-01-30T02:50:16;8.27;;;3.40;;
26391;SDS011;14572;43.120;1.178;2024-01-30T02:52:46;5.97;;;3.33;;
26391;SDS011;14572;43.120;1.178;2024-01-30T02:55:16;7.88;;;3.63;;
26391;SDS011;14572;43.120;1.178;2024-01-30T02:57:43;8.85;;;3.70;;
26391;SDS011;14572;43.120;1.178;2024-01-30T03:00:11;6.60;;;3.67;;
26391;SDS011;14572;43.120;1.178;2024-01-30T03:02:40;9.50;;;3.10;;
26391;SDS011;14572;43.120;1.178;2024-01-30T03:05:08;9.30;;;3.63;;
26391;SDS011;14572;43.120;1.178;2024-01-30T03:07:35;10.15;;;3.40;;
26391;SDS011;14572;43.120;1.178;2024-01-30T03:10:02;8.50;;;3.40;;
26391;SDS011;14572;43.120;1.178;2024-01-30T03:12:34;6.40;;;3.88;;
26391;SDS011;14572;43.120;1.178;2024-01-30T03:15:01;10.63;;;4.03;;
26391;SDS011;14572;43.120;1.178;2024-01-30T03:17:28;7.88;;;3.70;;
26391;SDS011;14572;43.120;1.178;2024-01-30T03:19:55;10.05;;;3.75;;
26391;SDS011;14572;43.120;1.178;2024-01-30T03:22:22;7.65;;;3.22;;
26391;SDS011;14572;43.120;1.178;2024-01-30T03:24:49;11.02;;;4.05;;
26391;SDS011;14572;43.120;1.178;2024-01-30T03:27:20;6.40;;;3.20;;
26391;SDS011;14572;43.120;1.178;2024-01-30T03:29:51;6.03;;;3.30;;
26391;SDS011;14572;43.120;1.178;2024-01-30T03:32:17;6.57;;;3.58;;
26391;SDS011;14572;43.120;1.178;2024-01-30T03:34:46;6.55;;;3.45;;
26391;SDS011;14572;43.120;1.178;2024-01-30T03:37:13;7.30;;;3.28;;
26391;SDS011;14572;43.120;1.178;2024-01-30T03:39:42;5.43;;;3.17;;
26391;SDS011;14572;43.120;1.178;2024-01-30T03:42:14;12.65;;;3.08;;
26391;SDS011;14572;43.120;1.178;2024-01-30T03:44:41;6.28;;;3.40;;
26391;SDS011;14572;43.120;1.178;2024-01-30T03:47:09;10.20;;;4.07;;
26391;SDS011;14572;43.120;1.178;2024-01-30T03:49:38;10.02;;;3.42;;
26391;SDS011;14572;43.120;1.178;2024-01-30T03:52:05;5.70;;;3.42;;
26391;SDS011;14572;43.120;1.178;2024-01-30T03:54:34;9.07;;;3.45;;
26391;SDS011;14572;43.120;1.178;2024-01-30T03:57:01;8.65;;;3.28;;
26391;SDS011;14572;43.120;1.178;2024-01-30T03:59:28;6.40;;;3.50;;
26391;SDS011;14572;43.120;1.178;2024-01-30T04:01:57;6.07;;;3.55;;
26391;SDS011;14572;43.120;1.178;2024-01-30T04:04:27;7.18;;;3.47;;
26391;SDS011;14572;43.120;1.178;2024-01-30T04:06:58;6.47;;;3.75;;
26391;SDS011;14572;43.120;1.178;2024-01-30T04:09:28;8.35;;;3.70;;
26391;SDS011;14572;43.120;1.178;2024-01-30T04:11:58;6.63;;;3.60;;
26391;SDS011;14572;43.120;1.178;2024-01-30T04:14:27;9.90;;;3.88;;
26391;SDS011;14572;43.120;1.178;2024-01-30T04:16:54;7.75;;;3.60;;
26391;SDS011;14572;43.120;1.178;2024-01-30T04:19:36;6.50;;;3.25;;
26391;SDS011;14572;43.120;1.178;2024-01-30T04:22:03;10.93;;;3.97;;
26391;SDS011;14572;43.120;1.178;2024-01-30T04:24:35;8.23;;;3.72;;
26391;SDS011;14572;43.120;1.178;2024-01-30T04:27:02;6.05;;;3.13;;
26391;SDS011;14572;43.120;1.178;2024-01-30T04:29:29;7.80;;;3.08;;
26391;SDS011;14572;43.120;1.178;2024-01-30T04:31:59;5.00;;;3.50;;
26391;SDS011;14572;43.120;1.178;2024-01-30T04:34:26;8.02;;;3.50;;
26391;SDS011;14572;43.120;1.178;2024-01-30T04:36:56;7.20;;;3.42;;
26391;SDS011;14572;43.120;1.178;2024-01-30T04:39:23;5.57;;;3.25;;
26391;SDS011;14572;43.120;1.178;2024-01-30T04:41:52;9.70;;;4.03;;
26391;SDS011;14572;43.120;1.178;2024-01-30T04:44:22;8.50;;;3.95;;
26391;SDS011;14572;43.120;1.178;2024-01-30T04:46:49;6.35;;;3.20;;
26391;SDS011;14572;43.120;1.178;2024-01-30T04:49:16;8.18;;;3.90;;
26391;SDS011;14572;43.120;1.178;2024-01-30T04:51:43;6.03;;;3.60;;
26391;SDS011;14572;43.120;1.178;2024-01-30T04:54:11;6.38;;;3.75;;
26391;SDS011;14572;43.120;1.178;2024-01-30T04:56:39;5.05;;;3.58;;
26391;SDS011;14572;43.120;1.178;2024-01-30T04:59:06;5.10;;;3.53;;
26391;SDS011;14572;43.120;1.178;2024-01-30T05:01:34;8.38;;;4.35;;
26391;SDS011;14572;43.120;1.178;2024-01-30T05:04:00;9.70;;;3.95;;
26391;SDS011;14572;43.120;1.178;2024-01-30T05:06:30;7.18;;;3.70;;
26391;SDS011;14572;43.120;1.178;2024-01-30T05:08:57;8.07;;;3.60;;
26391;SDS011;14572;43.120;1.178;2024-01-30T05:11:27;4.78;;;3.55;;
26391;SDS011;14572;43.120;1.178;2024-01-30T05:13:54;7.65;;;3.20;;
26391;SDS011;14572;43.120;1.178;2024-01-30T05:16:21;6.95;;;3.33;;
26391;SDS011;14572;43.120;1.178;2024-01-30T05:18:50;5.85;;;3.42;;
26391;SDS011;14572;43.120;1.178;2024-01-30T05:21:17;5.15;;;3.40;;
26391;SDS011;14572;43.120;1.178;2024-01-30T05:23:44;5.80;;;3.25;;
26391;SDS011;14572;43.120;1.178;2024-01-30T05:26:11;5.95;;;4.03;;
26391;SDS011;14572;43.120;1.178;2024-01-30T05:28:40;6.03;;;3.90;;
26391;SDS011;14572;43.120;1.178;2024-01-30T05:31:07;8.73;;;4.03;;
26391;SDS011;14572;43.120;1.178;2024-01-30T05:33:37;9.98;;;4.40;;
26391;SDS011;14572;43.120;1.178;2024-01-30T05:36:04;6.32;;;3.80;;
26391;SDS011;14572;43.120;1.178;2024-01-30T05:38:31;5.47;;;3.72;;
26391;SDS011;14572;43.120;1.178;2024-01-30T05:40:58;5.72;;;3.28;;
26391;SDS011;14572;43.120;1.178;2024-01-30T05:43:25;10.00;;;3.80;;
26391;SDS011;14572;43.120;1.178;2024-01-30T05:45:54;5.68;;;3.45;;
26391;SDS011;14572;43.120;1.178;2024-01-30T05:48:21;7.50;;;3.17;;
26391;SDS011;14572;43.120;1.178;2024-01-30T05:50:48;5.32;;;3.20;;
26391;SDS011;14572;43.120;1.178;2024-01-30T05:53:15;9.25;;;3.97;;
26391;SDS011;14572;43.120;1.178;2024-01-30T05:55:43;8.98;;;3.60;;
26391;SDS011;14572;43.120;1.178;2024-01-30T05:58:10;5.05;;;3.28;;
26391;SDS011;14572;43.120;1.178;2024-01-30T06:00:37;7.80;;;3.58;;
26391;SDS011;14572;43.120;1.178;2024-01-30T06:03:07;7.22;;;3.85;;
26391;SDS011;14572;43.120;1.178;2024-01-30T06:05:34;8.32;;;3.85;;
26391;SDS011;14572;43.120;1.178;2024-01-30T06:08:01;5.25;;;3.33;;
26391;SDS011;14572;43.120;1.178;2024-01-30T06:10:29;7.40;;;3.45;;
26391;SDS011;14572;43.120;1.178;2024-01-30T06:12:56;5.80;;;3.28;;
26391;SDS011;14572;43.120;1.178;2024-01-30T06:15:23;10.02;;;4.55;;
26391;SDS011;14572;43.120;1.178;2024-01-30T06:17:51;7.25;;;3.83;;
26391;SDS011;14572;43.120;1.178;2024-01-30T06:20:19;5.63;;;3.85;;
26391;SDS011;14572;43.120;1.178;2024-01-30T06:22:46;7.45;;;3.50;;
26391;SDS011;14572;43.120;1.178;2024-01-30T06:25:13;7.28;;;3.42;;
26391;SDS011;14572;43.120;1.178;2024-01-30T06:27:41;7.95;;;3.53;;
26391;SDS011;14572;43.120;1.178;2024-01-30T06:30:09;7.88;;;3.50;;
26391;SDS011;14572;43.120;1.178;2024-01-30T06:32:39;8.98;;;3.72;;
26391;SDS011;14572;43.120;1.178;2024-01-30T06:35:09;10.40;;;3.83;;
26391;SDS011;14572;43.120;1.178;2024-01-30T06:37:39;6.38;;;3.53;;
26391;SDS011;14572;43.120;1.178;2024-01-30T06:40:06;4.78;;;3.63;;
26391;SDS011;14572;43.120;1.178;2024-01-30T06:42:34;6.30;;;3.17;;
26391;SDS011;14572;43.120;1.178;2024-01-30T06:45:01;7.30;;;3.50;;
26391;SDS011;14572;43.120;1.178;2024-01-30T06:47:28;4.30;;;2.97;;
26391;SDS011;14572;43.120;1.178;2024-01-30T06:49:56;9.32;;;3.55;;
26391;SDS011;14572;43.120;1.178;2024-01-30T06:52:23;5.32;;;3.72;;
26391;SDS011;14572;43.120;1.178;2024-01-30T06:54:51;6.25;;;3.30;;
26391;SDS011;14572;43.120;1.178;2024-01-30T06:57:18;7.85;;;3.58;;
26391;SDS011;14572;43.120;1.178;2024-01-30T06:59:45;5.03;;;3.33;;
26391;SDS011;14572;43.120;1.178;2024-01-30T07:02:12;6.80;;;3.70;;
26391;SDS011;14572;43.120;1.178;2024-01-30T07:04:39;7.40;;;3.28;;
26391;SDS011;14572;43.120;1.178;2024-01-30T07:07:19;5.30;;;3.38;;
26391;SDS011;14572;43.120;1.178;2024-01-30T07:09:46;5.45;;;3.33;;
26391;SDS011;14572;43.120;1.178;2024-01-30T07:12:19;6.57;;;3.28;;
26391;SDS011;14572;43.120;1.178;2024-01-30T07:14:46;7.18;;;3.28;;
26391;SDS011;14572;43.120;1.178;2024-01-30T07:17:13;9.38;;;3.78;;
26391;SDS011;14572;43.120;1.178;2024-01-30T07:19:42;9.35;;;3.80;;
26391;SDS011;14572;43.120;1.178;2024-01-30T07:22:09;7.15;;;3.53;;
26391;SDS011;14572;43.120;1.178;2024-01-30T07:24:36;9.30;;;4.15;;
26391;SDS011;14572;43.120;1.178;2024-01-30T07:27:10;6.45;;;3.30;;
26391;SDS011;14572;43.120;1.178;2024-01-30T07:29:38;6.40;;;3.53;;
26391;SDS011;14572;43.120;1.178;2024-01-30T07:32:05;6.75;;;3.65;;
26391;SDS011;14572;43.120;1.178;2024-01-30T07:34:32;6.35;;;3.42;;
26391;SDS011;14572;43.120;1.178;2024-01-30T07:36:59;7.72;;;3.33;;
26391;SDS011;14572;43.120;1.178;2024-01-30T07:39:26;7.30;;;3.28;;
26391;SDS011;14572;43.120;1.178;2024-01-30T07:41:53;7.50;;;3.15;;
26391;SDS011;14572;43.120;1.178;2024-01-30T07:44:20;5.22;;;3.35;;
26391;SDS011;14572;43.120;1.178;2024-01-30T07:46:48;9.25;;;4.15;;
26391;SDS011;14572;43.120;1.178;2024-01-30T07:49:15;5.95;;;4.00;;
26391;SDS011;14572;43.120;1.178;2024-01-30T07:51:42;6.35;;;3.53;;
26391;SDS011;14572;43.120;1.178;2024-01-30T07:54:16;6.82;;;3.70;;
26391;SDS011;14572;43.120;1.178;2024-01-30T07:56:43;8.00;;;3.33;;
26391;SDS011;14572;43.120;1.178;2024-01-30T07:59:10;7.20;;;3.60;;
26391;SDS011;14572;43.120;1.178;2024-01-30T08:01:37;4.35;;;3.03;;
26391;SDS011;14572;43.120;1.178;2024-01-30T08:04:06;7.38;;;3.53;;
26391;SDS011;14572;43.120;1.178;2024-01-30T08:06:33;6.65;;;3.17;;
26391;SDS011;14572;43.120;1.178;2024-01-30T08:09:00;6.40;;;3.53;;
26391;SDS011;14572;43.120;1.178;2024-01-30T08:11:27;8.10;;;3.45;;
26391;SDS011;14572;43.120;1.178;2024-01-30T08:13:54;6.13;;;3.22;;
26391;SDS011;14572;43.120;1.178;2024-01-30T08:16:21;7.90;;;3.33;;
26391;SDS011;14572;43.120;1.178;2024-01-30T08:18:48;5.65;;;3.30;;
26391;SDS011;14572;43.120;1.178;2024-01-30T08:21:17;6.95;;;3.03;;
26391;SDS011;14572;43.120;1.178;2024-01-30T08:23:44;7.65;;;2.90;;
26391;SDS011;14572;43.120;1.178;2024-01-30T08:26:11;8.57;;;3.55;;
26391;SDS011;14572;43.120;1.178;2024-01-30T08:28:38;7.70;;;3.63;;
26391;SDS011;14572;43.120;1.178;2024-01-30T08:31:05;4.15;;;3.38;;
26391;SDS011;14572;43.120;1.178;2024-01-30T08:33:32;12.75;;;4.95;;
26391;SDS011;14572;43.120;1.178;2024-01-30T08:35:59;6.82;;;4.03;;
26391;SDS011;14572;43.120;1.178;2024-01-30T08:38:27;9.20;;;3.80;;
26391;SDS011;14572;43.120;1.178;2024-01-30T08:40:55;6.63;;;3.30;;
26391;SDS011;14572;43.120;1.178;2024-01-30T08:43:22;5.55;;;3.70;;
26391;SDS011;14572;43.120;1.178;2024-01-30T08:45:49;7.30;;;3.47;;
26391;SDS011;14572;43.120;1.178;2024-01-30T08:48:16;12.63;;;5.32;;
26391;SDS011;14572;43.120;1.178;2024-01-30T08:50:43;6.07;;;3.90;;
26391;SDS011;14572;43.120;1.178;2024-01-30T08:53:10;8.95;;;4.38;;
26391;SDS011;14572;43.120;1.178;2024-01-30T08:55:39;6.78;;;3.72;;
26391;SDS011;14572;43.120;1.178;2024-01-30T08:58:06;10.40;;;5.00;;
26391;SDS011;14572;43.120;1.178;2024-01-30T09:00:33;15.63;;;5.78;;
26391;SDS011;14572;43.120;1.178;2024-01-30T09:03:00;11.68;;;4.90;;
26391;SDS011;14572;43.120;1.178;2024-01-30T09:05:27;11.98;;;5.07;;
26391;SDS011;14572;43.120;1.178;2024-01-30T09:07:54;10.65;;;6.22;;
26391;SDS011;14572;43.120;1.178;2024-01-30T09:10:21;20.33;;;6.80;;
26391;SDS011;14572;43.120;1.178;2024-01-30T09:12:49;13.80;;;7.82;;
26391;SDS011;14572;43.120;1.178;2024-01-30T09:15:16;13.38;;;6.38;;
26391;SDS011;14572;43.120;1.178;2024-01-30T09:17:44;14.85;;;7.25;;
26391;SDS011;14572;43.120;1.178;2024-01-30T09:20:11;15.13;;;6.50;;
26391;SDS011;14572;43.120;1.178;2024-01-30T09:22:38;9.90;;;4.82;;
26391;SDS011;14572;43.120;1.178;2024-01-30T09:25:05;11.65;;;5.70;;
26391;SDS011;14572;43.120;1.178;2024-01-30T09:27:32;9.52;;;4.95;;
26391;SDS011;14572;43.120;1.178;2024-01-30T09:30:00;9.55;;;5.05;;
26391;SDS011;14572;43.120;1.178;2024-01-30T09:32:28;13.05;;;4.82;;
26391;SDS011;14572;43.120;1.178;2024-01-30T09:34:55;8.02;;;5.13;;
26391;SDS011;14572;43.120;1.178;2024-01-30T09:37:22;10.75;;;5.65;;
26391;SDS011;14572;43.120;1.178;2024-01-30T09:39:49;12.95;;;5.25;;
26391;SDS011;14572;43.120;1.178;2024-01-30T09:42:18;8.65;;;5.10;;
26391;SDS011;14572;43.120;1.178;2024-01-30T09:44:49;10.10;;;5.05;;
26391;SDS011;14572;43.120;1.178;2024-01-30T09:47:19;12.43;;;4.88;;
26391;SDS011;14572;43.120;1.178;2024-01-30T09:49:46;10.77;;;5.15;;
26391;SDS011;14572;43.120;1.178;2024-01-30T09:52:13;10.93;;;5.30;;
26391;SDS011;14572;43.120;1.178;2024-01-30T09:54:40;10.90;;;5.50;;
26391;SDS011;14572;43.120;1.178;2024-01-30T09:57:08;9.40;;;4.75;;
26391;SDS011;14572;43.120;1.178;2024-01-30T09:59:35;10.93;;;4.65;;
26391;SDS011;14572;43.120;1.178;2024-01-30T10:02:02;11.00;;;5.65;;
26391;SDS011;14572;43.120;1.178;2024-01-30T10:04:31;13.32;;;5.07;;
26391;SDS011;14572;43.120;1.178;2024-01-30T10:06:58;7.55;;;4.80;;
26391;SDS011;14572;43.120;1.178;2024-01-30T10:09:27;10.30;;;4.90;;
26391;SDS011;14572;43.120;1.178;2024-01-30T10:11:54;10.40;;;4.90;;
26391;SDS011;14572;43.120;1.178;2024-01-30T10:14:21;10.55;;;4.30;;
26391;SDS011;14572;43.120;1.178;2024-01-30T10:16:48;10.13;;;4.68;;
26391;SDS011;14572;43.120;1.178;2024-01-30T10:19:15;9.18;;;4.50;;
26391;SDS011;14572;43.120;1.178;2024-01-30T10:21:44;13.35;;;4.57;;
26391;SDS011;14572;43.120;1.178;2024-01-30T10:24:13;10.02;;;4.38;;
26391;SDS011;14572;43.120;1.178;2024-01-30T10:26:40;12.48;;;5.28;;
26391;SDS011;14572;43.120;1.178;2024-01-30T10:29:09;12.32;;;4.22;;
26391;SDS011;14572;43.120;1.178;2024-01-30T10:31:36;7.40;;;4.80;;
26391;SDS011;14572;43.120;1.178;2024-01-30T10:34:03;7.88;;;4.03;;
26391;SDS011;14572;43.120;1.178;2024-01-30T10:36:30;6.75;;;4.20;;
26391;SDS011;14572;43.120;1.178;2024-01-30T10:39:01;8.65;;;4.32;;
26391;SDS011;14572;43.120;1.178;2024-01-30T10:41:31;8.82;;;4.40;;
26391;SDS011;14572;43.120;1.178;2024-01-30T10:44:02;5.40;;;3.60;;
26391;SDS011;14572;43.120;1.178;2024-01-30T10:46:35;6.82;;;3.47;;
26391;SDS011;14572;43.120;1.178;2024-01-30T10:49:04;7.25;;;3.60;;
26391;SDS011;14572;43.120;1.178;2024-01-30T10:51:32;5.63;;;3.40;;
26391;SDS011;14572;43.120;1.178;2024-01-30T10:54:00;5.65;;;3.03;;
26391;SDS011;14572;43.120;1.178;2024-01-30T10:56:27;5.53;;;2.88;;
26391;SDS011;14572;43.120;1.178;2024-01-30T10:58:55;7.18;;;2.78;;
26391;SDS011;14572;43.120;1.178;2024-01-30T11:01:22;4.40;;;3.00;;
26391;SDS011;14572;43.120;1.178;2024-01-30T11:03:50;5.97;;;3.25;;
26391;SDS011;14572;43.120;1.178;2024-01-30T11:06:17;5.53;;;2.75;;
26391;SDS011;14572;43.120;1.178;2024-01-30T11:08:47;8.02;;;2.90;;
26391;SDS011;14572;43.120;1.178;2024-01-30T11:11:29;8.10;;;3.15;;
26391;SDS011;14572;43.120;1.178;2024-01-30T11:14:00;7.60;;;2.90;;
26391;SDS011;14572;43.120;1.178;2024-01-30T11:16:30;6.53;;;2.70;;
26391;SDS011;14572;43.120;1.178;2024-01-30T11:19:00;5.40;;;2.22;;
26391;SDS011;14572;43.120;1.178;2024-01-30T11:21:27;5.60;;;2.90;;
26391;SDS011;14572;43.120;1.178;2024-01-30T11:23:54;4.60;;;2.15;;
26391;SDS011;14572;43.120;1.178;2024-01-30T11:26:25;4.38;;;2.40;;
26391;SDS011;14572;43.120;1.178;2024-01-30T11:28:54;4.63;;;1.90;;
26391;SDS011;14572;43.120;1.178;2024-01-30T11:31:22;4.63;;;1.65;;
26391;SDS011;14572;43.120;1.178;2024-01-30T11:33:52;3.40;;;1.70;;
26391;SDS011;14572;43.120;1.178;2024-01-30T11:36:20;4.28;;;1.90;;
26391;SDS011;14572;43.120;1.178;2024-01-30T11:38:51;4.70;;;1.60;;
26391;SDS011;14572;43.120;1.178;2024-01-30T11:41:18;3.45;;;2.05;;
26391;SDS011;14572;43.120;1.178;2024-01-30T11:43:52;4.05;;;1.48;;
26391;SDS011;14572;43.120;1.178;2024-01-30T11:46:19;5.50;;;1.70;;
26391;SDS011;14572;43.120;1.178;2024-01-30T11:48:46;3.15;;;1.30;;
26391;SDS011;14572;43.120;1.178;2024-01-30T11:51:13;7.72;;;2.17;;
26391;SDS011;14572;43.120;1.178;2024-01-30T11:53:43;3.40;;;1.50;;
26391;SDS011;14572;43.120;1.178;2024-01-30T11:56:12;5.13;;;1.88;;
26391;SDS011;14572;43.120;1.178;2024-01-30T11:58:42;3.47;;;1.65;;
26391;SDS011;14572;43.120;1.178;2024-01-30T12:01:11;3.50;;;1.70;;
26391;SDS011;14572;43.120;1.178;2024-01-30T12:03:38;5.82;;;1.70;;
26391;SDS011;14572;43.120;1.178;2024-01-30T12:06:05;4.53;;;1.90;;
26391;SDS011;14572;43.120;1.178;2024-01-30T12:08:32;4.72;;;1.75;;
26391;SDS011;14572;43.120;1.178;2024-01-30T12:10:59;3.03;;;1.67;;
26391;SDS011;14572;43.120;1.178;2024-01-30T12:13:30;4.05;;;1.60;;
26391;SDS011;14572;43.120;1.178;2024-01-30T12:15:57;4.03;;;1.70;;
26391;SDS011;14572;43.120;1.178;2024-01-30T12:18:26;5.70;;;1.92;;
26391;SDS011;14572;43.120;1.178;2024-01-30T12:20:58;4.35;;;1.67;;
26391;SDS011;14572;43.120;1.178;2024-01-30T12:23:26;3.95;;;1.70;;
26391;SDS011;14572;43.120;1.178;2024-01-30T12:25:53;4.82;;;1.92;;
26391;SDS011;14572;43.120;1.178;2024-01-30T12:28:20;5.43;;;1.60;;
26391;SDS011;14572;43.120;1.178;2024-01-30T12:30:47;2.55;;;1.50;;
26391;SDS011;14572;43.120;1.178;2024-01-30T12:33:16;4.07;;;1.80;;
26391;SDS011;14572;43.120;1.178;2024-01-30T12:35:47;6.47;;;1.83;;
26391;SDS011;14572;43.120;1.178;2024-01-30T12:38:14;3.15;;;1.70;;
26391;SDS011;14572;43.120;1.178;2024-01-30T12:40:41;5.40;;;2.15;;
26391;SDS011;14572;43.120;1.178;2024-01-30T12:43:08;1.88;;;1.48;;
26391;SDS011;14572;43.120;1.178;2024-01-30T12:45:35;3.53;;;1.98;;
26391;SDS011;14572;43.120;1.178;2024-01-30T12:48:03;5.60;;;1.90;;
26391;SDS011;14572;43.120;1.178;2024-01-30T12:50:30;3.35;;;1.70;;
26391;SDS011;14572;43.120;1.178;2024-01-30T12:52:58;7.72;;;2.00;;
26391;SDS011;14572;43.120;1.178;2024-01-30T12:55:26;7.55;;;1.75;;
26391;SDS011;14572;43.120;1.178;2024-01-30T12:57:53;4.10;;;1.73;;
26391;SDS011;14572;43.120;1.178;2024-01-30T13:00:20;4.47;;;1.88;;
26391;SDS011;14572;43.120;1.178;2024-01-30T13:02:47;3.50;;;1.60;;
26391;SDS011;14572;43.120;1.178;2024-01-30T13:05:14;5.57;;;1.60;;
26391;SDS011;14572;43.120;1.178;2024-01-30T13:07:42;3.97;;;1.80;;
26391;SDS011;14572;43.120;1.178;2024-01-30T13:10:10;4.85;;;1.90;;
26391;SDS011;14572;43.120;1.178;2024-01-30T13:12:38;3.85;;;2.08;;
26391;SDS011;14572;43.120;1.178;2024-01-30T13:15:05;4.57;;;2.08;;
26391;SDS011;14572;43.120;1.178;2024-01-30T13:17:32;7.25;;;2.00;;
26391;SDS011;14572;43.120;1.178;2024-01-30T13:19:59;7.63;;;2.10;;
26391;SDS011;14572;43.120;1.178;2024-01-30T13:22:27;6.90;;;2.10;;
26391;SDS011;14572;43.120;1.178;2024-01-30T13:24:54;7.32;;;1.85;;
26391;SDS011;14572;43.120;1.178;2024-01-30T13:27:22;4.13;;;1.90;;
26391;SDS011;14572;43.120;1.178;2024-01-30T13:29:49;4.25;;;2.28;;
26391;SDS011;14572;43.120;1.178;2024-01-30T13:32:16;6.55;;;2.45;;
26391;SDS011;14572;43.120;1.178;2024-01-30T13:34:43;6.28;;;2.30;;
26391;SDS011;14572;43.120;1.178;2024-01-30T13:37:10;7.88;;;2.38;;
26391;SDS011;14572;43.120;1.178;2024-01-30T13:39:37;5.55;;;2.20;;
26391;SDS011;14572;43.120;1.178;2024-01-30T13:42:04;4.57;;;1.98;;
26391;SDS011;14572;43.120;1.178;2024-01-30T13:44:32;4.43;;;1.83;;
26391;SDS011;14572;43.120;1.178;2024-01-30T13:47:00;4.30;;;2.20;;
26391;SDS011;14572;43.120;1.178;2024-01-30T13:49:27;8.13;;;2.10;;
26391;SDS011;14572;43.120;1.178;2024-01-30T13:51:54;5.10;;;2.50;;
26391;SDS011;14572;43.120;1.178;2024-01-30T13:54:21;4.35;;;2.28;;
26391;SDS011;14572;43.120;1.178;2024-01-30T13:56:48;6.35;;;2.72;;
26391;SDS011;14572;43.120;1.178;2024-01-30T13:59:15;7.07;;;2.83;;
26391;SDS011;14572;43.120;1.178;2024-01-30T14:01:49;6.13;;;2.30;;
26391;SDS011;14572;43.120;1.178;2024-01-30T14:04:17;4.57;;;2.05;;
26391;SDS011;14572;43.120;1.178;2024-01-30T14:06:44;6.45;;;2.08;;
26391;SDS011;14572;43.120;1.178;2024-01-30T14:09:11;6.80;;;2.50;;
26391;SDS011;14572;43.120;1.178;2024-01-30T14:11:40;6.93;;;2.00;;
26391;SDS011;14572;43.120;1.178;2024-01-30T14:20:53;6.45;;;2.10;;
26391;SDS011;14572;43.120;1.178;2024-01-30T14:23:20;6.57;;;2.65;;
26391;SDS011;14572;43.120;1.178;2024-01-30T14:25:47;6.03;;;2.53;;
26391;SDS011;14572;43.120;1.178;2024-01-30T14:28:14;6.47;;;2.17;;
26391;SDS011;14572;43.120;1.178;2024-01-30T14:30:41;5.85;;;2.33;;
26391;SDS011;14572;43.120;1.178;2024-01-30T14:33:08;11.70;;;2.40;;
26391;SDS011;14572;43.120;1.178;2024-01-30T14:35:35;5.63;;;2.53;;
26391;SDS011;14572;43.120;1.178;2024-01-30T14:38:03;3.60;;;2.20;;
26391;SDS011;14572;43.120;1.178;2024-01-30T14:40:32;6.93;;;2.10;;
26391;SDS011;14572;43.120;1.178;2024-01-30T14:42:59;5.90;;;2.47;;
26391;SDS011;14572;43.120;1.178;2024-01-30T14:45:26;11.02;;;2.63;;
26391;SDS011;14572;43.120;1.178;2024-01-30T14:47:53;7.65;;;2.28;;
26391;SDS011;14572;43.120;1.178;2024-01-30T14:50:21;5.30;;;2.58;;
26391;SDS011;14572;43.120;1.178;2024-01-30T14:52:48;7.78;;;2.45;;
26391;SDS011;14572;43.120;1.178;2024-01-30T14:55:16;6.60;;;2.25;;
26391;SDS011;14572;43.120;1.178;2024-01-30T14:57:43;3.95;;;2.05;;